Time;durP1;ratioP1;P1;durP2;ratioP2;P2;SDS_P1;SDS_P2;PMS_P1;PMS_P2;Temp;Humidity;BMP_temperature;BMP_pressure;BME280_temperature;BME280_humidity;BME280_pressure;Samples;Min_cycle;Max_cycle;Signal;HPM_P1;HPM_P2
2023/08/12 00:00:32;;;;;;;3.90;3.55;;;28.00;49.40;;;;;;5033043;28;20091;-68
2023/08/12 00:03:08;;;;;;;5.22;3.50;;;28.00;49.40;;;;;;5032981;28;20598;-68
2023/08/12 00:05:56;;;;;;;4.53;3.58;;;28.00;49.40;;;;;;5032823;28;20128;-68
2023/08/12 00:08:22;;;;;;;6.10;3.50;;;28.00;49.40;;;;;;5032655;28;20037;-68
2023/08/12 00:10:48;;;;;;;9.38;3.67;;;28.00;49.50;;;;;;5033021;28;20043;-68
2023/08/12 00:13:17;;;;;;;4.80;3.28;;;28.00;49.50;;;;;;5031591;28;20080;-68
2023/08/12 00:15:44;;;;;;;4.07;3.47;;;28.10;49.50;;;;;;5031872;28;20532;-67
2023/08/12 00:18:15;;;;;;;7.40;3.85;;;28.00;49.50;;;;;;5032335;28;20088;-68
2023/08/12 00:20:42;;;;;;;4.53;3.72;;;28.00;49.50;;;;;;5032777;28;20025;-68
2023/08/12 00:23:08;;;;;;;3.63;3.30;;;28.10;49.60;;;;;;5032601;28;20033;-69
2023/08/12 00:25:34;;;;;;;4.10;3.70;;;28.00;49.60;;;;;;5032684;28;20044;-68
2023/08/12 00:28:00;;;;;;;5.32;3.40;;;28.10;49.60;;;;;;5032407;28;20026;-69
2023/08/12 00:30:27;;;;;;;4.13;3.47;;;28.00;49.60;;;;;;5031279;28;20473;-68
2023/08/12 00:32:53;;;;;;;10.35;3.97;;;28.10;49.60;;;;;;5031438;28;20453;-68
2023/08/12 00:35:19;;;;;;;4.90;3.42;;;27.90;49.00;;;;;;5032880;28;20045;-68
2023/08/12 00:37:45;;;;;;;4.72;3.35;;;28.00;49.50;;;;;;5032138;28;20045;-68
2023/08/12 00:40:13;;;;;;;4.95;3.60;;;27.90;49.00;;;;;;5014862;28;20072;-68
2023/08/12 00:42:39;;;;;;;4.03;2.80;;;27.90;48.90;;;;;;5032562;28;20045;-68
2023/08/12 00:45:13;;;;;;;5.25;3.33;;;28.10;49.50;;;;;;5032197;28;20034;-68
2023/08/12 00:47:40;;;;;;;4.03;3.60;;;28.00;49.50;;;;;;5032082;28;20048;-68
2023/08/12 00:50:15;;;;;;;10.20;3.80;;;27.90;49.20;;;;;;5030686;28;20034;-68
2023/08/12 00:52:42;;;;;;;4.18;3.63;;;27.90;49.20;;;;;;5013456;28;20072;-68
2023/08/12 00:55:09;;;;;;;5.22;3.40;;;28.00;49.80;;;;;;5032074;28;20033;-69
2023/08/12 00:57:35;;;;;;;5.40;4.07;;;28.00;49.80;;;;;;5032118;28;20026;-68
2023/08/12 01:00:06;;;;;;;5.63;3.50;;;27.90;49.30;;;;;;5031987;28;20037;-69
2023/08/12 01:02:32;;;;;;;5.40;3.50;;;28.00;49.90;;;;;;4996826;28;20477;-68
2023/08/12 01:04:59;;;;;;;4.07;3.67;;;28.00;49.90;;;;;;5031815;28;20476;-68
2023/08/12 01:07:25;;;;;;;5.90;3.97;;;28.00;50.00;;;;;;5032002;28;20062;-67
2023/08/12 01:09:51;;;;;;;9.30;3.63;;;28.00;50.00;;;;;;5030573;28;20041;-68
2023/08/12 01:13:17;;;;;;;4.38;3.20;;;28.00;50.00;;;;;;4980444;28;20077;-68
2023/08/12 01:15:29;;;;;;;7.95;3.38;;;28.00;50.00;;;;;;5025928;28;20108;-68
2023/08/12 01:17:58;;;;;;;5.20;3.35;;;28.00;50.00;;;;;;5031826;28;20112;-68
2023/08/12 01:20:26;;;;;;;6.95;3.85;;;28.10;50.00;;;;;;5031664;28;20034;-68
2023/08/12 01:23:13;;;;;;;4.53;3.90;;;28.00;50.00;;;;;;5030392;28;20474;-68
2023/08/12 01:25:40;;;;;;;6.30;3.20;;;28.00;49.90;;;;;;5030348;28;20033;-68
2023/08/12 01:28:07;;;;;;;4.20;3.50;;;28.00;49.90;;;;;;5013975;28;20051;-68
2023/08/12 01:30:51;;;;;;;5.40;3.50;;;27.80;49.40;;;;;;5030475;28;20037;-68
2023/08/12 01:33:43;;;;;;;4.65;3.75;;;27.90;49.40;;;;;;5031361;28;20428;-68
2023/08/12 01:36:15;;;;;;;4.35;3.30;;;27.90;49.50;;;;;;5031211;28;20068;-68
2023/08/12 01:38:43;;;;;;;3.90;3.13;;;27.90;49.50;;;;;;5013672;28;20095;-68
2023/08/12 01:41:11;;;;;;;9.80;4.03;;;27.80;49.60;;;;;;5030354;28;20052;-68
2023/08/12 01:43:38;;;;;;;5.28;3.92;;;27.80;49.60;;;;;;5030058;28;20029;-67
2023/08/12 01:46:04;;;;;;;4.50;4.10;;;27.80;49.60;;;;;;5031163;28;20075;-68
2023/08/12 01:48:30;;;;;;;9.27;4.30;;;27.80;49.70;;;;;;4995872;28;20053;-68
2023/08/12 01:50:56;;;;;;;4.70;3.80;;;27.90;49.70;;;;;;5031016;28;20123;-69
2023/08/12 01:53:23;;;;;;;5.90;4.03;;;28.00;50.30;;;;;;5031262;28;20033;-68
2023/08/12 01:55:50;;;;;;;4.35;3.83;;;27.90;49.70;;;;;;5013323;28;20045;-68
2023/08/12 01:58:17;;;;;;;5.60;3.67;;;27.90;49.70;;;;;;5029752;28;20025;-68
2023/08/12 02:00:43;;;;;;;4.35;3.95;;;27.80;49.70;;;;;;5013233;28;20453;-68
2023/08/12 02:03:09;;;;;;;4.28;3.72;;;28.00;50.30;;;;;;5031100;28;20038;-68
2023/08/12 02:05:37;;;;;;;4.43;3.90;;;28.00;50.30;;;;;;5013263;28;20057;-68
2023/08/12 02:08:05;;;;;;;6.25;3.92;;;27.90;49.70;;;;;;5029519;28;20497;-68
2023/08/12 02:10:34;;;;;;;6.20;4.63;;;28.10;50.30;;;;;;5029913;28;20034;-69
2023/08/12 02:13:01;;;;;;;7.32;4.53;;;27.80;49.70;;;;;;5013048;28;20037;-68
2023/08/12 02:15:27;;;;;;;6.07;4.20;;;27.90;49.70;;;;;;5030878;28;20048;-68
2023/08/12 02:17:53;;;;;;;7.25;3.97;;;27.90;49.70;;;;;;5013124;28;20095;-68
2023/08/12 02:20:19;;;;;;;6.00;4.32;;;27.90;49.70;;;;;;5013468;28;20041;-68
2023/08/12 02:22:45;;;;;;;6.22;4.15;;;27.90;49.80;;;;;;5030737;28;20496;-68
2023/08/12 02:25:12;;;;;;;4.82;3.92;;;27.80;49.80;;;;;;5012215;28;20037;-68
2023/08/12 02:27:39;;;;;;;4.10;3.42;;;27.80;49.80;;;;;;5029452;28;20497;-69
2023/08/12 02:30:06;;;;;;;5.70;3.90;;;27.80;49.90;;;;;;5029216;28;20037;-68
2023/08/12 02:32:35;;;;;;;5.00;3.70;;;27.80;49.90;;;;;;5030743;28;20037;-68
2023/08/12 02:35:01;;;;;;;7.20;3.90;;;27.80;50.00;;;;;;5029310;28;20539;-68
2023/08/12 02:37:30;;;;;;;4.32;3.65;;;27.80;50.00;;;;;;4996217;28;20049;-68
2023/08/12 02:39:56;;;;;;;4.03;3.53;;;27.90;50.00;;;;;;5013134;28;20037;-68
2023/08/12 02:42:22;;;;;;;5.30;3.72;;;27.80;50.00;;;;;;5015389;28;20025;-68
2023/08/12 02:44:48;;;;;;;6.70;3.83;;;27.80;50.00;;;;;;5034533;28;20131;-68
2023/08/12 02:47:14;;;;;;;4.43;3.63;;;28.00;50.60;;;;;;5017039;28;20033;-68
2023/08/12 02:49:44;;;;;;;4.78;3.72;;;27.90;50.00;;;;;;5032933;28;20041;-68
2023/08/12 02:52:10;;;;;;;4.18;3.75;;;27.90;50.00;;;;;;5034404;28;20025;-68
2023/08/12 02:54:37;;;;;;;7.72;4.65;;;27.90;50.00;;;;;;5034265;28;20409;-69
2023/08/12 02:57:03;;;;;;;5.80;4.30;;;27.90;50.00;;;;;;5034409;28;20040;-68
2023/08/12 02:59:30;;;;;;;6.50;4.18;;;27.90;50.00;;;;;;5032342;28;20037;-69
2023/08/12 03:01:55;;;;;;;8.32;4.70;;;27.80;50.00;;;;;;5034268;28;20409;-68
2023/08/12 03:04:22;;;;;;;8.73;5.30;;;27.80;50.00;;;;;;5034640;28;20499;-68
2023/08/12 03:06:48;;;;;;;12.52;6.20;;;27.80;50.00;;;;;;5032968;28;20041;-68
2023/08/12 03:09:18;;;;;;;8.88;5.75;;;27.90;50.00;;;;;;5011409;28;20168;-69
2023/08/12 03:11:45;;;;;;;7.85;5.15;;;27.80;50.10;;;;;;4995342;28;20050;-69
2023/08/12 03:14:11;;;;;;;5.68;4.32;;;27.70;50.10;;;;;;4995585;28;20061;-69
2023/08/12 03:16:38;;;;;;;7.22;5.20;;;27.80;50.20;;;;;;4995433;28;20030;-69
2023/08/12 03:19:07;;;;;;;6.18;4.80;;;27.90;50.20;;;;;;4995547;28;20134;-69
2023/08/12 03:21:34;;;;;;;6.70;4.60;;;27.70;50.30;;;;;;4995268;28;20041;-69
2023/08/12 03:24:00;;;;;;;6.88;4.07;;;27.70;50.30;;;;;;4972287;28;20564;-69
2023/08/12 03:26:27;;;;;;;8.75;4.35;;;27.80;50.30;;;;;;4972610;28;20169;-69
2023/08/12 03:28:55;;;;;;;6.00;4.68;;;27.90;50.30;;;;;;4956179;28;20097;-69
2023/08/12 03:31:27;;;;;;;8.80;4.50;;;27.90;50.30;;;;;;4972527;28;20043;-69
2023/08/12 03:33:53;;;;;;;6.60;4.18;;;27.70;50.30;;;;;;4972261;28;20047;-69
2023/08/12 03:36:20;;;;;;;7.53;4.68;;;27.80;50.30;;;;;;4956398;28;20514;-69
2023/08/12 03:38:52;;;;;;;7.88;4.28;;;27.80;50.30;;;;;;4972234;28;20034;-69
2023/08/12 03:41:22;;;;;;;5.00;3.50;;;27.90;50.40;;;;;;4974864;28;20050;-67
2023/08/12 03:43:49;;;;;;;3.88;2.83;;;27.80;50.30;;;;;;4975406;28;20046;-67
2023/08/12 03:46:20;;;;;;;2.88;2.42;;;27.90;50.20;;;;;;4975474;28;20034;-67
2023/08/12 03:48:46;;;;;;;6.22;3.30;;;27.90;49.70;;;;;;4975080;28;20435;-68
2023/08/12 03:51:15;;;;;;;4.85;3.13;;;27.90;49.20;;;;;;4991260;28;20042;-67
2023/08/12 03:53:41;;;;;;;5.60;3.80;;;27.70;47.50;;;;;;4990165;28;20050;-68
2023/08/12 03:56:07;;;;;;;6.43;4.20;;;27.70;46.90;;;;;;4991363;28;20038;-68
2023/08/12 03:58:39;;;;;;;5.72;3.70;;;27.70;47.40;;;;;;4975055;28;20129;-68
2023/08/12 04:01:06;;;;;;;5.40;3.92;;;27.80;47.00;;;;;;4989098;28;20034;-67
2023/08/12 04:03:32;;;;;;;4.82;4.00;;;27.60;46.60;;;;;;5010886;28;20038;-68
2023/08/12 04:05:58;;;;;;;5.78;4.35;;;27.70;46.70;;;;;;4994364;28;20050;-68
2023/08/12 04:08:25;;;;;;;5.90;4.10;;;27.70;46.40;;;;;;5010493;28;20129;-70
2023/08/12 04:10:58;;;;;;;5.95;4.43;;;27.70;46.20;;;;;;5010815;28;20456;-69
2023/08/12 04:13:25;;;;;;;4.03;3.63;;;27.80;48.00;;;;;;4994047;28;20042;-68
2023/08/12 04:15:53;;;;;;;9.30;3.90;;;28.10;50.20;;;;;;5010595;28;20045;-68
2023/08/12 04:18:19;;;;;;;4.28;3.88;;;28.30;55.70;;;;;;5010418;28;20041;-69
2023/08/12 04:20:47;;;;;;;3.65;3.10;;;28.50;56.00;;;;;;5010606;28;20104;-67
2023/08/12 04:23:13;;;;;;;5.68;4.07;;;28.50;49.30;;;;;;5013210;28;20045;-68
2023/08/12 04:25:40;;;;;;;4.47;3.97;;;28.20;49.20;;;;;;5032776;28;20033;-67
2023/08/12 04:28:06;;;;;;;4.70;3.63;;;28.20;48.60;;;;;;5031051;28;20037;-68
2023/08/12 04:30:33;;;;;;;8.93;3.65;;;28.00;48.50;;;;;;5031273;28;20073;-70
2023/08/12 04:33:01;;;;;;;5.13;3.92;;;28.10;48.60;;;;;;5031397;28;20048;-68
2023/08/12 04:35:32;;;;;;;7.00;4.00;;;28.10;48.40;;;;;;5031138;28;20057;-69
2023/08/12 04:37:59;;;;;;;4.80;3.92;;;28.00;48.40;;;;;;5031228;28;20037;-69
2023/08/12 04:40:25;;;;;;;5.07;3.95;;;28.00;48.40;;;;;;5031352;28;20117;-69
2023/08/12 04:42:52;;;;;;;4.72;3.30;;;28.10;48.40;;;;;;4994133;28;20140;-70
2023/08/12 04:45:18;;;;;;;4.15;3.55;;;28.10;48.50;;;;;;5014959;28;20032;-69
2023/08/12 04:47:45;;;;;;;5.15;3.60;;;28.00;48.60;;;;;;5014182;28;20072;-69
2023/08/12 04:50:13;;;;;;;5.30;3.53;;;28.00;48.70;;;;;;5014600;28;20136;-69
2023/08/12 04:52:39;;;;;;;5.68;3.85;;;28.10;48.60;;;;;;5027674;28;20076;-68
2023/08/12 04:55:07;;;;;;;5.18;4.05;;;28.00;46.70;;;;;;5030952;28;20033;-68
2023/08/12 04:57:33;;;;;;;3.60;3.30;;;28.00;45.60;;;;;;5030836;28;20043;-68
2023/08/12 04:59:59;;;;;;;4.18;3.67;;;27.80;45.30;;;;;;5030927;28;20535;-65
2023/08/12 05:02:25;;;;;;;5.95;3.63;;;28.00;44.50;;;;;;5030544;28;20022;-69
2023/08/12 05:04:52;;;;;;;5.30;3.97;;;27.80;47.00;;;;;;5031812;28;20029;-66
2023/08/12 05:07:19;;;;;;;7.28;3.83;;;27.90;45.60;;;;;;5030574;28;20040;-68
2023/08/12 05:09:45;;;;;;;5.88;4.00;;;27.80;45.20;;;;;;5031505;28;20486;-68
2023/08/12 05:12:13;;;;;;;5.43;3.95;;;28.00;46.10;;;;;;5014140;28;20033;-67
2023/08/12 05:14:40;;;;;;;6.88;3.97;;;28.00;46.30;;;;;;5014017;28;20126;-66
2023/08/12 05:17:08;;;;;;;4.50;3.40;;;28.00;46.60;;;;;;5030700;28;20461;-67
2023/08/12 05:19:37;;;;;;;9.40;4.20;;;27.90;46.30;;;;;;5013912;28;20040;-67
2023/08/12 05:22:04;;;;;;;5.15;4.20;;;27.80;46.10;;;;;;5031671;28;20056;-68
2023/08/12 05:24:30;;;;;;;5.65;3.95;;;27.80;46.30;;;;;;5031662;28;20105;-68
2023/08/12 05:26:56;;;;;;;4.43;3.42;;;27.70;44.40;;;;;;5013789;28;20045;-67
2023/08/12 05:29:23;;;;;;;6.22;3.83;;;27.50;43.90;;;;;;5013415;28;20041;-69
2023/08/12 05:31:49;;;;;;;6.40;3.80;;;27.40;44.30;;;;;;5031386;28;20038;-69
2023/08/12 05:34:15;;;;;;;4.05;3.53;;;27.40;45.20;;;;;;5023325;28;20061;-71
2023/08/12 05:36:41;;;;;;;5.88;3.47;;;27.30;45.40;;;;;;5009516;28;20128;-69
2023/08/12 05:39:07;;;;;;;6.07;3.45;;;27.30;45.60;;;;;;5029945;28;20033;-69
2023/08/12 05:41:43;;;;;;;5.07;3.85;;;27.30;45.60;;;;;;5031383;28;20041;-70
2023/08/12 05:44:09;;;;;;;4.88;3.75;;;27.30;47.40;;;;;;5031552;28;20558;-71
2023/08/12 05:46:35;;;;;;;3.33;3.03;;;27.30;47.60;;;;;;5031264;28;20033;-72
2023/08/12 05:49:01;;;;;;;3.97;3.65;;;27.50;46.70;;;;;;5030861;28;20049;-73
2023/08/12 05:52:00;;;;;;;5.68;3.70;;;27.40;47.40;;;;;;5030686;28;20084;-73
2023/08/12 05:54:26;;;;;;;5.93;3.60;;;27.50;47.70;;;;;;5030819;28;20366;-73
2023/08/12 05:56:53;;;;;;;3.88;3.10;;;27.50;48.00;;;;;;5030821;28;20030;-72
2023/08/12 05:59:19;;;;;;;4.18;3.33;;;27.60;48.40;;;;;;5013049;28;20060;-72
2023/08/12 06:01:57;;;;;;;5.22;3.33;;;27.50;48.40;;;;;;5030692;28;20670;-71
2023/08/12 06:04:24;;;;;;;4.03;3.50;;;27.50;48.00;;;;;;5030752;28;20079;-74
2023/08/12 06:06:51;;;;;;;3.20;2.80;;;27.30;45.80;;;;;;5030605;28;20030;-72
2023/08/12 06:09:18;;;;;;;7.15;5.03;;;27.30;46.50;;;;;;5030771;28;20064;-74
2023/08/12 06:11:44;;;;;;;5.40;3.85;;;27.40;47.20;;;;;;5030838;28;20033;-72
2023/08/12 06:14:10;;;;;;;4.18;3.00;;;27.50;46.30;;;;;;5030759;28;20064;-73
2023/08/12 06:16:56;;;;;;;4.18;3.35;;;27.40;45.70;;;;;;5033862;28;20037;-74
2023/08/12 06:19:22;;;;;;;7.43;3.97;;;27.40;45.30;;;;;;5037127;28;20037;-70
2023/08/12 06:22:09;;;;;;;4.72;2.95;;;27.40;45.70;;;;;;5037505;28;20065;-73
2023/08/12 06:24:55;;;;;;;4.05;3.13;;;27.60;45.60;;;;;;5022194;28;20042;-73
2023/08/12 06:27:24;;;;;;;5.40;2.78;;;27.60;45.30;;;;;;5037653;28;20033;-73
2023/08/12 06:29:50;;;;;;;4.47;3.30;;;27.60;45.20;;;;;;5019702;28;20041;-73
2023/08/12 06:32:29;;;;;;;3.72;3.20;;;27.60;45.10;;;;;;5036141;28;20030;-74
2023/08/12 06:34:56;;;;;;;3.38;2.72;;;27.60;45.00;;;;;;5037171;28;20073;-72
2023/08/12 06:37:22;;;;;;;3.70;2.58;;;27.70;45.20;;;;;;5035937;28;20037;-73
2023/08/12 06:39:48;;;;;;;3.35;2.90;;;27.70;45.50;;;;;;5035896;28;20492;-75
2023/08/12 06:42:33;;;;;;;3.92;2.53;;;27.60;45.60;;;;;;5037212;28;20052;-78
2023/08/12 06:45:42;;;;;;;;;;;;;;;;;;;;;
2023/08/12 06:48:24;;;;;;;4.47;3.17;;;27.70;45.20;;;;;;5037309;28;20112;-70
2023/08/12 06:51:12;;;;;;;4.50;3.53;;;27.70;45.50;;;;;;5037402;28;20033;-73
2023/08/12 06:54:00;;;;;;;3.72;2.67;;;27.80;45.80;;;;;;5037171;28;20025;-76
2023/08/12 06:56:25;;;;;;;3.25;2.95;;;27.70;46.00;;;;;;5036996;28;20045;-74
2023/08/12 06:58:53;;;;;;;3.35;2.50;;;27.70;46.10;;;;;;5051404;28;20405;-73
2023/08/12 07:01:19;;;;;;;3.10;2.80;;;27.90;45.90;;;;;;5036945;28;20541;-72
2023/08/12 07:03:51;;;;;;;3.15;2.78;;;27.80;46.10;;;;;;5037402;28;20131;-74
2023/08/12 07:06:18;;;;;;;2.97;2.10;;;27.80;46.00;;;;;;5037391;28;20033;-74
2023/08/12 07:08:44;;;;;;;5.18;2.67;;;27.90;46.20;;;;;;5037501;28;20038;-75
2023/08/12 07:11:10;;;;;;;3.60;2.63;;;27.80;46.20;;;;;;5036826;28;20060;-73
2023/08/12 07:13:37;;;;;;;2.88;2.15;;;27.90;46.50;;;;;;5036884;28;20037;-73
2023/08/12 07:16:03;;;;;;;8.05;3.33;;;27.90;46.80;;;;;;5037052;28;20381;-75
2023/08/12 07:18:32;;;;;;;3.60;2.63;;;27.90;47.00;;;;;;5036992;28;20025;-70
2023/08/12 07:20:59;;;;;;;5.47;2.80;;;27.90;47.30;;;;;;5036962;28;20322;-74
2023/08/12 07:23:25;;;;;;;4.53;2.35;;;27.80;46.80;;;;;;5037025;28;20040;-74
2023/08/12 07:26:24;;;;;;;3.10;2.60;;;28.00;47.90;;;;;;5036928;28;20512;-75
2023/08/12 07:28:50;;;;;;;2.95;2.60;;;28.00;48.60;;;;;;5034822;28;20037;-74
2023/08/12 07:31:18;;;;;;;3.53;2.80;;;27.90;49.20;;;;;;5033806;28;20029;-74
2023/08/12 07:33:44;;;;;;;2.70;2.30;;;27.90;49.70;;;;;;5031089;28;20408;-73
2023/08/12 07:36:11;;;;;;;2.88;2.65;;;28.10;50.60;;;;;;5014735;28;20398;-76
2023/08/12 07:38:37;;;;;;;2.75;2.03;;;28.00;51.40;;;;;;5014329;28;20030;-78
2023/08/12 07:41:03;;;;;;;3.90;2.40;;;28.10;50.00;;;;;;5012425;28;20026;-72
2023/08/12 07:43:29;;;;;;;4.88;2.60;;;28.20;49.10;;;;;;5025978;28;20075;-69
2023/08/12 07:45:55;;;;;;;2.58;2.17;;;28.10;48.60;;;;;;5033384;28;20118;-72
2023/08/12 07:48:21;;;;;;;2.50;2.17;;;28.00;48.30;;;;;;5013736;28;21969;-72
2023/08/12 07:50:50;;;;;;;2.53;2.15;;;28.10;48.00;;;;;;5019767;28;20048;-70
2023/08/12 07:53:16;;;;;;;3.60;2.40;;;28.10;47.50;;;;;;5014796;28;20173;-68
2023/08/12 07:56:15;;;;;;;2.30;2.10;;;28.10;47.60;;;;;;5012504;28;20048;-70
2023/08/12 07:58:45;;;;;;;2.45;2.00;;;28.10;47.80;;;;;;4996510;28;20058;-73
2023/08/12 08:01:12;;;;;;;2.45;2.17;;;28.10;47.80;;;;;;4994896;28;20096;-72
2023/08/12 08:03:38;;;;;;;2.72;2.30;;;28.10;47.70;;;;;;5011728;28;20116;-74
2023/08/12 08:06:05;;;;;;;3.00;2.20;;;28.00;47.50;;;;;;5012420;28;20100;-71
2023/08/12 08:08:31;;;;;;;6.13;2.88;;;28.00;47.20;;;;;;5012685;28;20068;-74
2023/08/12 08:10:57;;;;;;;2.45;1.88;;;28.20;46.80;;;;;;5013337;28;20117;-73
2023/08/12 08:13:23;;;;;;;2.30;2.00;;;28.10;46.70;;;;;;5013318;28;20037;-71
2023/08/12 08:15:49;;;;;;;3.40;2.20;;;28.10;46.60;;;;;;5013191;28;20037;-73
2023/08/12 08:18:15;;;;;;;2.75;2.50;;;28.10;46.40;;;;;;5011866;28;20033;-72
2023/08/12 08:20:45;;;;;;;3.97;2.40;;;28.10;46.10;;;;;;4995368;28;20061;-73
2023/08/12 08:23:11;;;;;;;3.03;2.20;;;28.10;45.90;;;;;;5013024;28;20073;-78
2023/08/12 08:25:37;;;;;;;3.03;2.60;;;28.00;45.70;;;;;;5012023;28;20029;-75
2023/08/12 08:28:03;;;;;;;8.52;2.00;;;28.00;45.50;;;;;;5013159;28;20041;-70
2023/08/12 08:30:29;;;;;;;3.22;1.85;;;28.00;45.50;;;;;;5012603;28;20131;-69
2023/08/12 08:32:55;;;;;;;3.55;2.45;;;28.10;45.60;;;;;;5012987;28;20046;-69
2023/08/12 08:35:22;;;;;;;6.22;2.53;;;28.00;45.60;;;;;;5024811;28;20048;-70
2023/08/12 08:37:48;;;;;;;2.45;1.42;;;28.00;45.50;;;;;;5032950;28;20030;-70
2023/08/12 08:40:14;;;;;;;3.80;2.08;;;28.00;45.40;;;;;;5031635;28;20124;-70
2023/08/12 08:42:42;;;;;;;2.95;2.58;;;28.00;45.40;;;;;;5032595;28;20021;-69
2023/08/12 08:45:13;;;;;;;3.17;1.98;;;28.10;45.20;;;;;;5032372;28;20029;-69
2023/08/12 08:47:40;;;;;;;1.90;1.73;;;28.10;45.10;;;;;;5032464;28;20091;-69
2023/08/12 08:50:08;;;;;;;6.05;2.63;;;28.00;45.20;;;;;;5014596;28;20489;-72
2023/08/12 08:52:34;;;;;;;3.03;1.85;;;28.00;45.20;;;;;;5032335;28;20524;-69
2023/08/12 08:55:01;;;;;;;3.78;2.05;;;28.00;44.80;;;;;;5032359;28;20029;-74
2023/08/12 08:57:30;;;;;;;2.65;1.83;;;28.00;44.80;;;;;;5032233;28;20044;-73
2023/08/12 08:59:56;;;;;;;4.70;2.38;;;28.00;44.60;;;;;;5030773;28;20104;-74
2023/08/12 09:02:24;;;;;;;1.70;1.60;;;28.00;44.50;;;;;;5028353;28;20084;-73
2023/08/12 09:04:51;;;;;;;3.80;2.58;;;28.00;44.40;;;;;;5028335;28;20037;-72
2023/08/12 09:07:18;;;;;;;4.13;2.70;;;27.90;44.40;;;;;;5013983;28;20029;-76
2023/08/12 09:09:48;;;;;;;3.67;2.38;;;28.00;45.30;;;;;;5031782;28;20171;-73
2023/08/12 09:12:16;;;;;;;8.68;2.13;;;28.00;45.50;;;;;;5031432;28;20102;-73
2023/08/12 09:14:43;;;;;;;2.72;1.90;;;28.10;45.60;;;;;;5030296;28;20029;-71
2023/08/12 09:17:10;;;;;;;2.45;1.90;;;28.00;45.60;;;;;;5031620;28;20033;-72
2023/08/12 09:19:36;;;;;;;2.72;2.38;;;28.00;45.60;;;;;;5013892;28;20037;-72
2023/08/12 09:22:07;;;;;;;2.40;1.98;;;28.00;45.70;;;;;;5031354;28;20135;-71
2023/08/12 09:24:33;;;;;;;2.38;2.17;;;28.00;45.80;;;;;;5031533;28;20036;-73
2023/08/12 09:26:59;;;;;;;2.22;2.03;;;28.00;45.80;;;;;;5031310;28;20037;-74
2023/08/12 09:29:32;;;;;;;1.90;1.65;;;28.00;45.80;;;;;;5031603;28;20432;-74
2023/08/12 09:32:22;;;;;;;4.55;2.20;;;28.00;45.80;;;;;;5031345;28;20116;-78
2023/08/12 09:34:55;;;;;;;2.80;2.00;;;28.10;46.00;;;;;;5031591;28;20132;-74
2023/08/12 09:37:23;;;;;;;7.80;2.17;;;28.00;46.10;;;;;;5031314;28;20033;-71
2023/08/12 09:39:51;;;;;;;2.05;1.60;;;27.90;45.40;;;;;;5030267;28;20040;-71
2023/08/12 09:42:29;;;;;;;5.25;1.83;;;28.10;46.10;;;;;;5013402;28;20034;-71
2023/08/12 09:44:57;;;;;;;2.80;1.75;;;28.00;46.20;;;;;;5031517;28;20025;-70
2023/08/12 09:47:25;;;;;;;1.85;1.70;;;27.90;45.80;;;;;;5031297;28;20033;-67
2023/08/12 09:49:55;;;;;;;3.85;2.75;;;28.00;46.30;;;;;;5031126;28;20048;-68
2023/08/12 09:52:22;;;;;;;2.15;1.50;;;28.00;46.40;;;;;;5030120;28;20377;-68
2023/08/12 09:54:51;;;;;;;4.05;2.03;;;28.00;46.40;;;;;;5031087;28;20484;-69
2023/08/12 09:57:20;;;;;;;3.38;2.47;;;28.00;46.40;;;;;;5031304;28;20037;-69
2023/08/12 09:59:46;;;;;;;7.15;2.25;;;28.10;46.50;;;;;;5031175;28;20064;-69
2023/08/12 10:02:18;;;;;;;2.65;2.17;;;28.00;46.50;;;;;;5030953;28;20036;-70
2023/08/12 10:04:45;;;;;;;8.10;2.27;;;28.00;46.60;;;;;;5030046;28;20037;-70
2023/08/12 10:07:14;;;;;;;2.80;1.70;;;28.10;46.60;;;;;;4969914;28;20385;-71
2023/08/12 10:09:41;;;;;;;4.25;2.65;;;28.10;46.60;;;;;;4969882;28;20731;-70
2023/08/12 10:12:09;;;;;;;6.45;2.58;;;28.00;46.60;;;;;;4969544;28;20050;-69
2023/08/12 10:14:35;;;;;;;3.25;1.83;;;28.10;46.60;;;;;;4969591;28;20065;-69
2023/08/12 10:17:02;;;;;;;6.32;2.38;;;28.00;46.60;;;;;;4969715;28;20042;-68
2023/08/12 10:19:30;;;;;;;3.05;1.90;;;27.90;46.00;;;;;;4953524;28;20470;-69
2023/08/12 10:21:59;;;;;;;7.35;2.42;;;28.00;46.60;;;;;;4969360;28;20053;-71
2023/08/12 10:24:27;;;;;;;4.13;1.60;;;27.90;46.00;;;;;;4969559;28;20047;-71
2023/08/12 10:26:54;;;;;;;2.85;2.10;;;27.90;46.00;;;;;;4969640;28;20130;-72
2023/08/12 10:29:26;;;;;;;3.00;1.75;;;27.90;46.10;;;;;;4969302;28;20146;-70
2023/08/12 10:31:53;;;;;;;11.20;2.15;;;27.90;46.20;;;;;;4968952;28;20055;-68
2023/08/12 10:34:24;;;;;;;16.90;3.42;;;27.90;47.30;;;;;;4969201;28;20130;-68
2023/08/12 10:37:00;;;;;;;4.88;2.05;;;27.90;48.00;;;;;;4969280;28;20052;-69
2023/08/12 10:39:28;;;;;;;1.75;1.58;;;28.00;52.30;;;;;;4969206;28;20141;-64
2023/08/12 10:41:56;;;;;;;2.05;1.75;;;28.00;48.60;;;;;;4969084;28;20051;-64
2023/08/12 10:44:26;;;;;;;2.38;2.10;;;28.10;47.90;;;;;;4992515;28;20072;-67
2023/08/12 10:46:53;;;;;;;13.50;3.13;;;28.10;46.40;;;;;;5030466;28;20436;-68
2023/08/12 10:49:21;;;;;;;12.68;2.28;;;28.00;46.90;;;;;;5030304;28;20608;-67
2023/08/12 10:51:50;;;;;;;8.05;2.17;;;28.00;46.70;;;;;;5030312;28;20045;-68
2023/08/12 10:54:26;;;;;;;3.13;2.80;;;28.20;46.80;;;;;;5030198;28;20045;-68
2023/08/12 10:57:11;;;;;;;6.10;2.63;;;28.00;46.30;;;;;;5030415;28;20057;-68
2023/08/12 10:59:46;;;;;;;2.30;2.10;;;28.20;45.50;;;;;;5030404;28;20504;-68
2023/08/12 11:02:25;;;;;;;2.38;1.95;;;28.20;45.50;;;;;;5030988;28;20038;-68
2023/08/12 11:05:06;;;;;;;3.53;2.17;;;28.10;45.40;;;;;;5034082;28;20044;-67
2023/08/12 11:07:46;;;;;;;2.42;1.88;;;28.20;45.20;;;;;;4998982;28;20052;-67
2023/08/12 11:10:17;;;;;;;3.00;2.80;;;28.10;45.00;;;;;;5033977;28;20041;-68
2023/08/12 11:12:54;;;;;;;2.70;2.40;;;28.30;44.90;;;;;;5034090;28;20033;-66
2023/08/12 11:15:36;;;;;;;3.28;1.88;;;28.30;44.90;;;;;;5033825;28;20045;-67
2023/08/12 11:18:06;;;;;;;2.72;1.80;;;28.30;44.70;;;;;;5033826;28;20042;-68
2023/08/12 11:20:33;;;;;;;2.35;2.17;;;28.30;44.80;;;;;;5034017;28;20045;-64
2023/08/12 11:23:05;;;;;;;2.63;1.90;;;28.30;44.80;;;;;;5033821;28;20030;-68
2023/08/12 11:25:33;;;;;;;2.00;1.60;;;28.30;44.70;;;;;;5034022;28;20037;-67
2023/08/12 11:27:59;;;;;;;2.25;1.60;;;28.40;44.70;;;;;;5034161;28;20037;-67
2023/08/12 11:30:26;;;;;;;2.25;1.92;;;28.30;45.10;;;;;;5034140;28;20125;-66
2023/08/12 11:32:53;;;;;;;2.65;1.63;;;28.40;45.70;;;;;;5032402;28;20042;-66
2023/08/12 11:35:21;;;;;;;3.67;2.40;;;28.40;45.10;;;;;;5033369;28;20553;-67
2023/08/12 11:37:52;;;;;;;4.65;2.00;;;28.50;47.00;;;;;;5033560;28;20076;-66
2023/08/12 11:40:19;;;;;;;2.42;1.90;;;28.70;47.00;;;;;;5033253;28;20045;-66
2023/08/12 11:42:47;;;;;;;2.20;1.90;;;28.70;47.20;;;;;;5033841;28;20037;-65
2023/08/12 11:45:19;;;;;;;8.52;3.55;;;28.60;48.50;;;;;;5033399;28;20044;-66
2023/08/12 11:47:52;;;;;;;2.65;2.08;;;28.70;45.80;;;;;;5033495;28;20469;-67
2023/08/12 11:50:20;;;;;;;3.03;2.08;;;28.70;45.90;;;;;;5033016;28;20132;-64
2023/08/12 11:52:47;;;;;;;2.88;2.15;;;28.60;45.10;;;;;;5033205;28;20034;-67
2023/08/12 11:55:13;;;;;;;2.55;2.10;;;28.50;45.10;;;;;;5033091;28;20466;-67
2023/08/12 11:57:40;;;;;;;2.83;1.67;;;28.60;45.10;;;;;;5033347;28;20037;-68
2023/08/12 12:00:13;;;;;;;2.60;2.10;;;28.60;45.00;;;;;;5033173;28;20033;-68
2023/08/12 12:02:42;;;;;;;2.30;1.65;;;28.50;44.80;;;;;;5032970;28;20033;-68
2023/08/12 12:05:14;;;;;;;4.13;2.08;;;28.60;44.90;;;;;;4999779;28;20489;-69
2023/08/12 12:07:41;;;;;;;2.30;1.90;;;28.50;44.60;;;;;;4997987;28;20426;-67
2023/08/12 12:10:08;;;;;;;4.10;3.00;;;28.50;44.60;;;;;;5033298;28;20040;-67
2023/08/12 12:12:36;;;;;;;2.20;1.60;;;28.60;44.30;;;;;;5033075;28;20405;-66
2023/08/12 12:15:03;;;;;;;2.70;1.88;;;28.50;44.10;;;;;;5032086;28;20124;-66
2023/08/12 12:17:29;;;;;;;2.30;2.03;;;28.60;44.20;;;;;;5032691;28;20034;-66
2023/08/12 12:19:58;;;;;;;5.65;1.90;;;28.60;44.20;;;;;;5032657;28;20116;-68
2023/08/12 12:22:29;;;;;;;4.78;1.95;;;28.60;44.20;;;;;;5032532;28;20034;-69
2023/08/12 12:24:59;;;;;;;1.90;1.70;;;28.60;44.20;;;;;;5032623;28;20049;-68
2023/08/12 12:27:26;;;;;;;1.98;1.77;;;28.60;44.20;;;;;;5031325;28;20030;-68
2023/08/12 12:29:52;;;;;;;4.95;2.22;;;28.60;44.40;;;;;;5032462;28;20049;-68
2023/08/12 12:32:19;;;;;;;1.90;1.80;;;28.60;44.50;;;;;;5032154;28;20072;-69
2023/08/12 12:34:46;;;;;;;2.40;1.77;;;28.70;44.50;;;;;;5032541;28;20046;-69
2023/08/12 12:37:13;;;;;;;3.53;1.95;;;28.50;44.50;;;;;;5032761;28;20150;-69
2023/08/12 12:39:40;;;;;;;1.83;1.52;;;28.50;44.40;;;;;;5032425;28;20398;-67
2023/08/12 12:42:27;;;;;;;2.80;1.92;;;28.50;44.40;;;;;;5032294;28;20083;-68
2023/08/12 12:44:53;;;;;;;2.47;1.98;;;28.60;44.50;;;;;;5031894;28;20408;-69
2023/08/12 12:47:19;;;;;;;1.90;1.80;;;28.50;44.40;;;;;;5032472;28;20036;-70
2023/08/12 12:49:45;;;;;;;1.98;1.67;;;28.60;44.30;;;;;;5032261;28;20480;-69
2023/08/12 12:52:12;;;;;;;2.83;1.75;;;28.50;44.10;;;;;;5032387;28;20029;-68
2023/08/12 12:54:38;;;;;;;2.78;1.52;;;28.50;44.00;;;;;;5032067;28;20044;-69
2023/08/12 12:57:04;;;;;;;3.70;1.70;;;28.50;44.20;;;;;;4997205;28;20053;-65